Time;durP1;ratioP1;P1;durP2;ratioP2;P2;SDS_P1;SDS_P2;PMS_P1;PMS_P2;Temp;Humidity;BMP_temperature;BMP_pressure;BME280_temperature;BME280_humidity;BME280_pressure;Samples;Min_cycle;Max_cycle;Signal;HPM_P1;HPM_P2
2022/11/30 00:00:29;;;;;;;42.78;27.23;;;;;;;;;;5045537;28;20458;-81
2022/11/30 00:02:56;;;;;;;49.33;29.35;;;;;;;;;;5032662;28;20437;-80
2022/11/30 00:05:23;;;;;;;48.70;29.88;;;;;;;;;;5035090;28;20921;-79
2022/11/30 00:07:49;;;;;;;46.28;29.25;;;;;;;;;;5050377;28;20514;-79
2022/11/30 00:10:16;;;;;;;47.60;28.17;;;;;;;;;;5018532;28;20412;-79
2022/11/30 00:12:42;;;;;;;44.70;28.45;;;;;;;;;;5047696;28;20498;-77
2022/11/30 00:15:13;;;;;;;46.17;27.40;;;;;;;;;;5050901;28;20412;-76
2022/11/30 00:17:45;;;;;;;43.78;27.13;;;;;;;;;;5036843;28;20407;-76
2022/11/30 00:20:12;;;;;;;41.45;25.65;;;;;;;;;;5033022;28;20823;-76
2022/11/30 00:22:38;;;;;;;42.60;26.13;;;;;;;;;;5051065;28;20837;-76
2022/11/30 00:25:04;;;;;;;38.75;24.20;;;;;;;;;;5035816;28;20505;-77
2022/11/30 00:27:31;;;;;;;38.78;24.38;;;;;;;;;;5051224;28;20496;-77
2022/11/30 00:29:57;;;;;;;36.92;23.17;;;;;;;;;;5047990;28;20982;-76
2022/11/30 00:32:24;;;;;;;40.08;24.35;;;;;;;;;;5051802;28;20462;-76
2022/11/30 00:34:50;;;;;;;43.47;25.55;;;;;;;;;;5029208;28;20424;-76
2022/11/30 00:37:16;;;;;;;42.00;25.23;;;;;;;;;;5008816;28;20417;-76
2022/11/30 00:39:42;;;;;;;40.47;24.38;;;;;;;;;;5042462;28;20502;-76
2022/11/30 00:42:08;;;;;;;45.00;24.90;;;;;;;;;;5036547;28;20423;-76
2022/11/30 00:44:34;;;;;;;40.55;25.48;;;;;;;;;;5017474;28;20916;-76
2022/11/30 00:47:01;;;;;;;43.55;26.38;;;;;;;;;;5037854;28;20427;-76
2022/11/30 00:49:27;;;;;;;44.90;25.60;;;;;;;;;;5054970;28;20423;-76
2022/11/30 00:51:53;;;;;;;44.60;26.38;;;;;;;;;;5037882;28;20945;-76
2022/11/30 00:54:19;;;;;;;46.30;27.13;;;;;;;;;;5038196;28;20419;-76
2022/11/30 00:56:45;;;;;;;42.58;26.13;;;;;;;;;;5074140;28;20415;-76
2022/11/30 00:59:11;;;;;;;50.28;27.05;;;;;;;;;;5038335;28;20415;-76
2022/11/30 01:01:37;;;;;;;49.30;28.00;;;;;;;;;;5023245;28;20414;-76
2022/11/30 01:04:03;;;;;;;44.83;26.65;;;;;;;;;;5036761;28;20423;-76
2022/11/30 01:06:29;;;;;;;49.10;28.10;;;;;;;;;;5039202;28;20966;-76
2022/11/30 01:08:55;;;;;;;46.35;27.95;;;;;;;;;;5018035;28;20421;-76
2022/11/30 01:11:23;;;;;;;46.90;28.42;;;;;;;;;;5047662;28;20415;-76
2022/11/30 01:13:49;;;;;;;48.00;28.45;;;;;;;;;;5035717;28;20561;-76
2022/11/30 01:16:17;;;;;;;47.55;29.05;;;;;;;;;;5039535;28;20454;-77
2022/11/30 01:18:44;;;;;;;49.60;28.15;;;;;;;;;;5053753;28;20423;-76
2022/11/30 01:21:12;;;;;;;48.80;28.25;;;;;;;;;;5053870;28;20416;-76
2022/11/30 01:23:38;;;;;;;52.43;30.40;;;;;;;;;;5046820;28;20450;-76
2022/11/30 01:26:05;;;;;;;49.63;29.90;;;;;;;;;;5054426;28;20510;-76
2022/11/30 01:28:31;;;;;;;51.17;29.60;;;;;;;;;;5045995;28;20484;-76
2022/11/30 01:30:58;;;;;;;52.08;29.70;;;;;;;;;;5041323;28;20434;-76
2022/11/30 01:33:24;;;;;;;51.83;29.73;;;;;;;;;;5030148;28;20454;-75
2022/11/30 01:35:59;;;;;;;48.17;28.83;;;;;;;;;;5031120;28;20456;-76
2022/11/30 01:38:26;;;;;;;50.88;29.63;;;;;;;;;;5030507;28;20427;-76
2022/11/30 01:40:52;;;;;;;50.15;29.67;;;;;;;;;;5031626;28;20473;-75
2022/11/30 01:43:19;;;;;;;51.08;30.58;;;;;;;;;;4996986;28;20418;-76
2022/11/30 01:45:48;;;;;;;52.45;30.00;;;;;;;;;;5014576;28;20447;-76
2022/11/30 01:48:14;;;;;;;50.63;30.42;;;;;;;;;;5014235;28;20502;-76
2022/11/30 01:50:40;;;;;;;50.37;30.03;;;;;;;;;;4999046;28;20510;-76
2022/11/30 01:53:09;;;;;;;53.67;31.10;;;;;;;;;;5013140;28;20427;-75
2022/11/30 01:55:37;;;;;;;50.80;30.15;;;;;;;;;;4998960;28;20481;-77
2022/11/30 01:58:10;;;;;;;53.40;31.00;;;;;;;;;;5039790;28;20521;-77
2022/11/30 02:00:36;;;;;;;49.42;30.17;;;;;;;;;;5025231;28;20476;-76
2022/11/30 02:03:12;;;;;;;49.65;30.52;;;;;;;;;;5004384;28;20551;-76
2022/11/30 02:05:39;;;;;;;48.20;28.95;;;;;;;;;;5031136;28;20849;-77
2022/11/30 02:08:06;;;;;;;48.78;29.58;;;;;;;;;;5010678;28;20437;-76
2022/11/30 02:10:34;;;;;;;47.03;28.00;;;;;;;;;;5024998;28;20403;-76
2022/11/30 02:13:07;;;;;;;50.35;29.13;;;;;;;;;;5043724;28;20431;-77
2022/11/30 02:15:44;;;;;;;47.25;29.27;;;;;;;;;;5035279;28;20427;-75
2022/11/30 02:18:15;;;;;;;46.90;29.33;;;;;;;;;;5014871;28;20427;-76
2022/11/30 02:20:41;;;;;;;47.83;27.73;;;;;;;;;;5032414;28;20411;-76
2022/11/30 02:23:19;;;;;;;48.35;28.70;;;;;;;;;;5006664;28;20417;-76
2022/11/30 02:25:45;;;;;;;47.55;28.95;;;;;;;;;;5030115;28;20944;-76
2022/11/30 02:28:42;;;;;;;49.00;27.92;;;6.50;99.90;;;;;;5013619;28;20506;-76
2022/11/30 02:31:11;;;;;;;46.63;28.05;;;;;;;;;;5018052;28;20478;-76
2022/11/30 02:33:38;;;;;;;46.90;28.70;;;;;;;;;;5027661;28;20502;-76
2022/11/30 02:36:05;;;;;;;45.83;28.17;;;;;;;;;;5014944;28;21476;-76
2022/11/30 02:38:32;;;;;;;47.10;28.50;;;;;;;;;;5032607;28;20849;-76
2022/11/30 02:40:58;;;;;;;48.90;28.45;;;;;;;;;;5029314;28;20810;-76
2022/11/30 02:43:26;;;;;;;46.15;28.77;;;;;;;;;;5012714;28;20450;-80
2022/11/30 02:45:58;;;;;;;47.72;29.63;;;;;;;;;;5031073;28;20779;-79
2022/11/30 02:48:45;;;;;;;51.47;29.60;;;6.50;99.90;;;;;;5030719;28;20786;-79
2022/11/30 02:51:14;;;;;;;53.58;31.15;;;;;;;;;;5025080;28;20427;-79
2022/11/30 02:53:40;;;;;;;53.10;30.70;;;;;;;;;;5031662;28;20541;-79
2022/11/30 02:56:06;;;;;;;52.60;31.27;;;;;;;;;;5030108;28;20775;-79
2022/11/30 02:58:32;;;;;;;49.45;30.05;;;;;;;;;;5002208;28;20421;-79
2022/11/30 03:00:58;;;;;;;51.78;30.35;;;;;;;;;;5025820;28;20415;-80
2022/11/30 03:03:24;;;;;;;49.33;30.20;;;;;;;;;;5031389;28;20751;-80
2022/11/30 03:05:51;;;;;;;51.20;30.95;;;;;;;;;;5012864;28;20430;-79
2022/11/30 03:08:17;;;;;;;52.50;30.63;;;;;;;;;;5027150;28;20481;-79
2022/11/30 03:10:43;;;;;;;51.78;30.67;;;;;;;;;;5005727;28;20773;-78
2022/11/30 03:13:09;;;;;;;52.75;30.75;;;;;;;;;;5012397;28;20774;-79
2022/11/30 03:15:35;;;;;;;52.63;30.65;;;;;;;;;;5029464;28;21082;-79
2022/11/30 03:18:04;;;;;;;52.60;30.60;;;;;;;;;;5013291;28;20423;-79
2022/11/30 03:20:31;;;;;;;54.63;31.38;;;;;;;;;;5007095;28;20915;-80
2022/11/30 03:23:00;;;;;;;55.72;31.77;;;;;;;;;;4994924;28;20416;-79
2022/11/30 03:25:27;;;;;;;53.58;31.00;;;;;;;;;;5009566;28;20552;-79
2022/11/30 03:27:53;;;;;;;55.70;31.95;;;;;;;;;;5028943;28;20433;-79
2022/11/30 03:30:19;;;;;;;52.90;31.20;;;;;;;;;;5029895;28;20423;-79
2022/11/30 03:32:45;;;;;;;58.22;32.15;;;;;;;;;;5051166;28;20473;-80
2022/11/30 03:35:11;;;;;;;58.78;32.92;;;;;;;;;;5036397;28;20967;-79
2022/11/30 03:37:37;;;;;;;63.58;33.63;;;;;;;;;;5053213;28;20420;-79
2022/11/30 03:40:04;;;;;;;61.03;32.97;;;;;;;;;;5051074;28;20421;-80
2022/11/30 03:42:30;;;;;;;59.55;32.38;;;;;;;;;;5044003;28;20422;-80
2022/11/30 03:44:56;;;;;;;58.65;33.20;;;;;;;;;;5036847;28;20446;-80
2022/11/30 03:47:22;;;;;;;59.73;33.07;;;;;;;;;;5051208;28;20510;-80
2022/11/30 03:49:48;;;;;;;59.72;33.13;;;;;;;;;;5021138;28;21555;-80
2022/11/30 03:52:14;;;;;;;63.83;33.40;;;;;;;;;;5052639;28;20430;-80
2022/11/30 03:54:40;;;;;;;60.10;32.97;;;;;;;;;;5063953;28;20598;-79
2022/11/30 03:57:06;;;;;;;61.67;32.85;;;;;;;;;;5054754;28;20779;-80
2022/11/30 03:59:32;;;;;;;60.90;33.42;;;;;;;;;;5056545;28;20419;-79
2022/11/30 04:01:58;;;;;;;59.67;33.33;;;;;;;;;;5032281;28;20455;-79
2022/11/30 04:04:24;;;;;;;60.55;33.22;;;;;;;;;;5036342;28;20415;-79
2022/11/30 04:06:51;;;;;;;63.10;34.38;;;;;;;;;;5016370;28;20428;-79
2022/11/30 04:09:17;;;;;;;60.40;33.00;;;;;;;;;;5067982;28;20454;-80
2022/11/30 04:11:43;;;;;;;58.55;32.92;;;;;;;;;;5057567;28;20400;-79
2022/11/30 04:14:09;;;;;;;61.55;34.05;;;;;;;;;;5059734;28;20413;-80
2022/11/30 04:16:35;;;;;;;67.77;34.73;;;;;;;;;;5055811;28;20451;-80
2022/11/30 04:19:01;;;;;;;63.97;33.45;;;;;;;;;;5056704;28;20475;-80
2022/11/30 04:21:27;;;;;;;62.50;33.38;;;;;;;;;;5039177;28;20423;-79
2022/11/30 04:23:53;;;;;;;62.13;33.85;;;;;;;;;;5040618;28;20465;-79
2022/11/30 04:26:19;;;;;;;63.95;34.15;;;;;;;;;;5056777;28;20775;-79
2022/11/30 04:28:45;;;;;;;59.20;33.60;;;;;;;;;;5055422;28;20417;-80
2022/11/30 04:31:11;;;;;;;60.67;33.25;;;;;;;;;;5051708;28;20943;-79
2022/11/30 04:33:38;;;;;;;59.80;33.85;;;;;;;;;;5020825;28;20408;-79
2022/11/30 04:36:05;;;;;;;63.63;35.50;;;;;;;;;;5029532;28;20451;-79
2022/11/30 04:38:32;;;;;;;60.50;33.38;;;;;;;;;;5056149;28;20903;-79
2022/11/30 04:40:58;;;;;;;64.57;35.28;;;;;;;;;;5037998;28;20421;-79
2022/11/30 04:43:26;;;;;;;66.93;34.22;;;;;;;;;;5040281;28;20744;-80
2022/11/30 04:45:52;;;;;;;64.32;34.30;;;;;;;;;;5053318;28;20419;-79
2022/11/30 04:48:18;;;;;;;65.95;34.97;;;;;;;;;;5055045;28;20430;-78
2022/11/30 04:50:44;;;;;;;65.30;34.75;;;;;;;;;;5026852;28;20417;-78
2022/11/30 04:53:11;;;;;;;63.47;33.55;;;;;;;;;;5025428;28;20912;-79
2022/11/30 04:55:38;;;;;;;64.43;34.55;;;;;;;;;;5050639;28;20473;-79
2022/11/30 04:58:04;;;;;;;64.05;35.28;;;;;;;;;;5040238;28;20407;-79
2022/11/30 05:00:30;;;;;;;65.07;33.42;;;;;;;;;;5055074;28;20420;-80
2022/11/30 05:02:56;;;;;;;59.90;32.63;;;;;;;;;;5018970;28;20449;-80
2022/11/30 05:05:22;;;;;;;61.42;34.10;;;;;;;;;;5047791;28;20430;-79
2022/11/30 05:07:50;;;;;;;63.22;33.90;;;;;;;;;;5055893;28;20427;-79
2022/11/30 05:10:16;;;;;;;62.10;34.40;;;;;;;;;;5053530;28;20487;-79
2022/11/30 05:12:42;;;;;;;65.38;33.40;;;;;;;;;;5039639;28;20510;-78
2022/11/30 05:15:08;;;;;;;62.28;32.33;;;;;;;;;;5039682;28;20403;-79
2022/11/30 05:17:34;;;;;;;65.78;34.45;;;;;;;;;;5038511;28;20786;-79
2022/11/30 05:20:00;;;;;;;58.45;32.28;;;;;;;;;;5054158;28;20415;-79
2022/11/30 05:22:27;;;;;;;62.65;33.67;;;;;;;;;;5038602;28;20419;-79
2022/11/30 05:24:53;;;;;;;64.88;34.03;;;;;;;;;;5037634;28;20429;-79
2022/11/30 05:27:19;;;;;;;62.83;34.50;;;;;;;;;;5053598;28;20423;-77
2022/11/30 05:29:45;;;;;;;59.90;33.33;;;;;;;;;;5038053;28;20966;-80
2022/11/30 05:32:11;;;;;;;67.95;34.08;;;;;;;;;;5056352;28;20923;-80
2022/11/30 05:34:37;;;;;;;62.33;33.53;;;;;;;;;;5055196;28;20933;-79
2022/11/30 05:37:03;;;;;;;59.58;33.50;;;;;;;;;;5052539;28;20424;-76
2022/11/30 05:39:29;;;;;;;64.00;34.83;;;;;;;;;;5027996;28;20432;-73
2022/11/30 05:41:56;;;;;;;62.05;32.63;;;;;;;;;;5038038;28;20416;-73
2022/11/30 05:44:22;;;;;;;61.28;33.10;;;;;;;;;;5021182;28;20427;-79
2022/11/30 05:46:48;;;;;;;66.13;34.30;;;;;;;;;;5035822;28;20502;-74
2022/11/30 05:49:14;;;;;;;60.63;32.70;;;;;;;;;;5052882;28;20418;-80
2022/11/30 05:51:41;;;;;;;61.43;32.83;;;;;;;;;;5053868;28;20470;-79
2022/11/30 05:54:07;;;;;;;59.17;33.00;;;;;;;;;;5038361;28;20895;-79
2022/11/30 05:56:33;;;;;;;62.00;32.55;;;;;;;;;;5018123;28;20432;-74
2022/11/30 05:58:59;;;;;;;61.30;33.38;;;;;;;;;;5050585;28;20994;-74
2022/11/30 06:01:26;;;;;;;62.28;33.03;;;;;;;;;;5028335;28;20779;-74
2022/11/30 06:03:53;;;;;;;64.03;33.33;;;;;;;;;;5037993;28;20411;-74
2022/11/30 06:06:19;;;;;;;62.37;33.03;;;;;;;;;;5037913;28;20446;-74
2022/11/30 06:08:46;;;;;;;63.97;33.70;;;;;;;;;;5053288;28;21061;-74
2022/11/30 06:11:13;;;;;;;60.53;33.13;;;;;;;;;;5052118;28;20856;-73
2022/11/30 06:13:40;;;;;;;65.03;34.28;;;;;;;;;;5049139;28;20450;-74
2022/11/30 06:16:06;;;;;;;63.90;32.90;;;;;;;;;;5032303;28;20813;-74
2022/11/30 06:18:32;;;;;;;61.80;32.42;;;;;;;;;;5049850;28;20931;-75
2022/11/30 06:21:04;;;;;;;63.33;32.38;;;;;;;;;;5051641;28;20443;-74
2022/11/30 06:23:31;;;;;;;63.10;33.33;;;;;;;;;;5054409;28;20411;-80
2022/11/30 06:25:57;;;;;;;65.15;33.33;;;;;;;;;;5055073;28;20403;-80
2022/11/30 06:28:24;;;;;;;69.15;33.90;;;;;;;;;;5048792;28;20943;-74
2022/11/30 06:30:50;;;;;;;66.13;34.20;;;;;;;;;;5036358;28;20430;-75
2022/11/30 06:33:16;;;;;;;66.10;33.30;;;;;;;;;;5045412;28;20426;-73
2022/11/30 06:35:46;;;;;;;63.10;33.03;;;;;;;;;;5027972;28;20422;-79
2022/11/30 06:38:12;;;;;;;68.35;34.50;;;;;;;;;;5035078;28;20466;-79
2022/11/30 06:40:38;;;;;;;67.15;36.28;;;;;;;;;;5017559;28;20902;-79
2022/11/30 06:43:04;;;;;;;62.22;33.45;;;;;;;;;;5029989;28;20923;-79
2022/11/30 06:45:30;;;;;;;65.37;33.70;;;;;;;;;;5054393;28;20881;-80
2022/11/30 06:47:56;;;;;;;71.25;32.67;;;;;;;;;;5068578;28;20447;-79
2022/11/30 06:50:23;;;;;;;68.30;33.58;;;;;;;;;;5070956;28;20427;-79
2022/11/30 06:52:49;;;;;;;62.40;31.95;;;;;;;;;;5049415;28;20430;-73
2022/11/30 06:55:15;;;;;;;63.35;31.92;;;;;;;;;;5047373;28;20480;-73
2022/11/30 06:57:41;;;;;;;60.42;31.48;;;;;;;;;;5044984;28;20420;-73
2022/11/30 07:00:08;;;;;;;63.70;32.20;;;;;;;;;;5044272;28;20514;-80
2022/11/30 07:02:34;;;;;;;64.30;32.67;;;;;;;;;;5029332;28;20448;-81
2022/11/30 07:05:01;;;;;;;66.55;33.10;;;;;;;;;;5073955;28;20431;-79
2022/11/30 07:07:30;;;;;;;64.07;32.97;;;;;;;;;;5070129;28;20442;-79
2022/11/30 07:09:56;;;;;;;66.25;32.83;;;;;;;;;;5037739;28;20425;-79
2022/11/30 07:12:23;;;;;;;73.10;34.85;;;;;;;;;;5034722;28;20416;-78
2022/11/30 07:14:51;;;;;;;73.25;33.42;;;;;;;;;;5058883;28;20423;-79
2022/11/30 07:17:17;;;;;;;73.73;33.23;;;;;;;;;;5061261;28;20427;-79
2022/11/30 07:19:44;;;;;;;77.72;34.60;;;;;;;;;;5053512;28;20441;-80
2022/11/30 07:22:11;;;;;;;71.00;33.17;;;;;;;;;;5058406;28;20420;-81
2022/11/30 07:27:21;;;;;;;70.47;32.72;;;;;;;;;;5051786;28;20915;-81
2022/11/30 07:29:50;;;;;;;65.13;32.55;;;;;;;;;;5047673;28;20419;-80
2022/11/30 07:32:16;;;;;;;71.90;33.53;;;;;;;;;;5031798;28;20435;-78
2022/11/30 07:34:42;;;;;;;62.42;32.03;;;;;;;;;;5030143;28;20403;-78
2022/11/30 07:37:08;;;;;;;68.07;30.88;;;;;;;;;;5024043;28;20451;-73
2022/11/30 07:39:34;;;;;;;72.17;33.00;;;;;;;;;;5009808;28;20510;-73
2022/11/30 07:42:00;;;;;;;71.10;32.63;;;;;;;;;;4998173;28;20501;-72
2022/11/30 07:44:27;;;;;;;75.40;32.60;;;;;;;;;;5005804;28;20433;-72
2022/11/30 07:46:53;;;;;;;67.85;32.60;;;;;;;;;;5027670;28;21002;-72
2022/11/30 07:49:19;;;;;;;70.35;31.83;;;;;;;;;;5023376;28;20427;-72
2022/11/30 07:51:45;;;;;;;68.88;30.75;;;;;;;;;;5000635;28;20429;-72
2022/11/30 07:54:11;;;;;;;70.28;32.40;;;;;;;;;;5004100;28;20469;-72
2022/11/30 07:56:40;;;;;;;61.58;30.73;;;;;;;;;;5024831;28;20435;-73
2022/11/30 07:59:06;;;;;;;56.33;30.00;;;;;;;;;;5011285;28;20446;-73
2022/11/30 08:01:33;;;;;;;55.88;28.20;;;;;;;;;;5027655;28;20430;-72
2022/11/30 08:03:59;;;;;;;57.65;28.40;;;;;;;;;;5026671;28;20435;-72
2022/11/30 08:06:26;;;;;;;49.78;26.58;;;;;;;;;;5022835;28;20934;-72
2022/11/30 08:08:53;;;;;;;52.03;26.40;;;;;;;;;;5023271;28;20422;-73
2022/11/30 08:11:23;;;;;;;52.10;26.10;;;;;;;;;;5028965;28;20414;-73
2022/11/30 08:13:50;;;;;;;50.80;25.42;;;;;;;;;;5026341;28;20418;-73
2022/11/30 08:16:17;;;;;;;49.22;25.95;;;;;;;;;;5015687;28;20439;-73
2022/11/30 08:18:43;;;;;;;47.35;25.95;;;;;;;;;;5026695;28;20496;-72
2022/11/30 08:21:11;;;;;;;51.38;26.10;;;;;;;;;;5023916;28;20424;-73
2022/11/30 08:23:38;;;;;;;59.95;28.80;;;;;;;;;;5021134;28;20433;-73
2022/11/30 08:26:14;;;;;;;49.10;26.98;;;;;;;;;;4990351;28;20905;-74
2022/11/30 08:28:41;;;;;;;47.70;25.55;;;;;;;;;;5007798;28;20867;-73
2022/11/30 08:31:09;;;;;;;48.38;25.00;;;;;;;;;;5032324;28;20846;-74
2022/11/30 08:33:36;;;;;;;50.72;25.83;;;;;;;;;;5050404;28;20423;-74
2022/11/30 08:36:10;;;;;;;47.42;25.30;;;;;;;;;;5050228;28;20779;-74
2022/11/30 08:38:36;;;;;;;45.38;24.80;;;;;;;;;;5035069;28;20423;-74
2022/11/30 08:41:03;;;;;;;44.45;24.73;;;;;;;;;;5048256;28;20423;-73
2022/11/30 08:43:29;;;;;;;50.17;27.00;;;;;;;;;;5047588;28;20431;-74
2022/11/30 08:45:55;;;;;;;50.67;26.00;;;;;;;;;;5034405;28;20424;-74
2022/11/30 08:48:21;;;;;;;48.40;25.23;;;;;;;;;;5050731;28;20423;-74
2022/11/30 08:50:47;;;;;;;49.08;25.20;;;;;;;;;;5034273;28;20420;-74
2022/11/30 08:53:14;;;;;;;51.85;26.25;;;;;;;;;;5027531;28;20428;-74
2022/11/30 08:55:40;;;;;;;47.70;25.20;;;;;;;;;;5049429;28;20419;-74
2022/11/30 08:58:06;;;;;;;48.75;25.88;;;;;;;;;;5021973;28;20427;-74
2022/11/30 09:00:32;;;;;;;43.40;23.90;;;;;;;;;;5031673;28;20423;-73
2022/11/30 09:02:58;;;;;;;51.67;26.33;;;;;;;;;;5055723;28;20759;-74
2022/11/30 09:05:24;;;;;;;45.38;24.83;;;;;;;;;;5055844;28;20416;-74
2022/11/30 09:07:50;;;;;;;52.50;27.40;;;;;;;;;;5032965;28;20420;-72
2022/11/30 09:10:16;;;;;;;48.22;25.50;;;;;;;;;;5038210;28;20466;-72
2022/11/30 09:12:42;;;;;;;47.80;25.27;;;;;;;;;;5047269;28;20502;-72
2022/11/30 09:15:09;;;;;;;46.15;25.50;;;;;;;;;;5026439;28;20409;-73
2022/11/30 09:17:36;;;;;;;43.67;24.85;;;;;;;;;;5054245;28;20478;-74
2022/11/30 09:20:02;;;;;;;47.33;25.77;;;;;;;;;;5054952;28;20450;-72
2022/11/30 09:22:29;;;;;;;44.80;25.07;;;;;;;;;;5053008;28;20516;-72
2022/11/30 09:24:55;;;;;;;46.65;25.33;;;;;;;;;;5052522;28;20980;-72
2022/11/30 09:27:22;;;;;;;41.95;24.35;;;;;;;;;;5043177;28;20903;-72
2022/11/30 09:29:48;;;;;;;41.92;24.42;;;;;;;;;;5049469;28;20430;-72
2022/11/30 09:32:14;;;;;;;40.50;23.80;;;;;;;;;;5051642;28;20978;-73
2022/11/30 09:34:40;;;;;;;40.00;23.17;;;;;;;;;;5045638;28;20500;-73
2022/11/30 09:37:06;;;;;;;36.53;22.38;;;;;;;;;;5028741;28;20953;-73
2022/11/30 09:39:32;;;;;;;39.33;22.92;;;;;;;;;;5035105;28;20427;-73
2022/11/30 09:42:34;;;;;;;35.88;22.65;;;;;;;;;;5028530;28;20479;-73
2022/11/30 09:45:11;;;;;;;36.47;22.13;;;;;;;;;;4963650;28;20441;-73
2022/11/30 09:47:40;;;;;;;36.80;22.83;;;;;;;;;;5026739;28;20870;-74
2022/11/30 09:50:18;;;;;;;35.67;22.17;;;;;;;;;;5044517;28;20514;-74
2022/11/30 09:52:48;;;;;;;37.45;23.13;;;;;;;;;;5051953;28;20499;-73
2022/11/30 09:55:17;;;;;;;36.17;22.08;;;;;;;;;;5036953;28;20456;-74
2022/11/30 09:57:48;;;;;;;37.53;22.42;;;;;;;;;;5052038;28;20485;-73
2022/11/30 10:00:20;;;;;;;37.45;22.45;;;;;;;;;;5045779;28;20443;-74
2022/11/30 10:02:48;;;;;;;36.10;22.30;;;;;;;;;;5049335;28;20427;-73
2022/11/30 10:05:15;;;;;;;36.28;23.08;;;;;;;;;;5052731;28;20423;-74
2022/11/30 10:07:41;;;;;;;37.63;22.85;;;;;;;;;;5040792;28;20428;-74
2022/11/30 10:10:24;;;;;;;37.45;22.70;;;;;;;;;;5037891;28;20417;-73
2022/11/30 10:12:58;;;;;;;37.35;22.27;;;;;;;;;;5048279;28;20476;-73
2022/11/30 10:15:27;;;;;;;37.70;22.75;;;;;;;;;;5047933;28;20424;-73
2022/11/30 10:17:54;;;;;;;38.70;24.15;;;;;;;;;;5026998;28;20504;-73
2022/11/30 10:20:35;;;;;;;36.70;22.75;;;;;;;;;;5036913;28;20434;-73
2022/11/30 10:23:14;;;;;;;40.03;23.27;;;;;;;;;;5038167;28;20435;-74
2022/11/30 10:25:52;;;;;;;38.35;23.30;;;;;;;;;;5038934;28;20546;-74
2022/11/30 10:28:25;;;;;;;40.65;24.90;;;;;;;;;;5037187;28;20421;-73
2022/11/30 10:30:51;;;;;;;40.17;23.38;;;;;;;;;;5040401;28;20420;-73
2022/11/30 10:33:19;;;;;;;41.95;23.60;;;;;;;;;;5045154;28;20462;-73
2022/11/30 10:35:56;;;;;;;41.03;23.40;;;;;;;;;;5048576;28;20499;-73
2022/11/30 10:38:27;;;;;;;41.60;23.98;;;;;;;;;;5063468;28;20427;-73
2022/11/30 10:41:19;;;;;;;41.05;23.73;;;7.60;99.90;;;;;;5033605;28;20859;-73
2022/11/30 10:43:49;;;;;;;40.17;23.88;;;;;;;;;;5032786;28;20474;-74
2022/11/30 10:46:21;;;;;;;42.25;24.27;;;;;;;;;;5032024;28;20426;-73
2022/11/30 10:49:07;;;;;;;41.47;24.17;;;;;;;;;;5053414;28;20420;-74
2022/11/30 10:51:37;;;;;;;38.05;22.80;;;;;;;;;;5053266;28;20502;-74
2022/11/30 10:54:11;;;;;;;39.70;24.08;;;;;;;;;;5050870;28;20915;-73
2022/11/30 10:56:37;;;;;;;40.05;23.98;;;;;;;;;;5053647;28;20458;-74
2022/11/30 10:59:09;;;;;;;37.92;23.38;;;;;;;;;;5033227;28;20530;-79
2022/11/30 11:01:35;;;;;;;40.95;23.75;;;;;;;;;;5052913;28;20431;-81
2022/11/30 11:04:24;;;;;;;38.72;23.45;;;;;;;;;;5052313;28;20426;-72
2022/11/30 11:06:52;;;;;;;36.72;22.55;;;;;;;;;;5052532;28;20772;-79
2022/11/30 11:09:39;;;;;;;42.63;23.80;;;;;;;;;;5046327;28;20434;-80
2022/11/30 11:12:06;;;;;;;37.92;23.33;;;;;;;;;;5050238;28;20435;-80
2022/11/30 11:14:33;;;;;;;38.15;24.02;;;;;;;;;;5045997;28;20423;-79
2022/11/30 11:17:27;;;;;;;37.33;24.02;;;7.70;99.90;;;;;;5033396;28;20514;-79
2022/11/30 11:19:53;;;;;;;36.10;23.33;;;;;;;;;;5040835;28;20417;-80
2022/11/30 11:22:19;;;;;;;41.47;24.25;;;;;;;;;;5037619;28;20419;-80
2022/11/30 11:24:46;;;;;;;37.40;23.67;;;;;;;;;;5052790;28;20420;-80
2022/11/30 11:27:20;;;;;;;38.83;23.83;;;;;;;;;;5033554;28;20600;-73
2022/11/30 11:29:57;;;;;;;40.95;24.20;;;;;;;;;;5052885;28;20420;-73
2022/11/30 11:32:24;;;;;;;40.58;24.73;;;;;;;;;;5053827;28;20420;-73
2022/11/30 11:34:50;;;;;;;38.92;24.90;;;;;;;;;;5052563;28;20918;-73
2022/11/30 11:37:27;;;;;;;40.20;25.20;;;;;;;;;;5047091;28;20837;-72
2022/11/30 11:40:02;;;;;;;42.83;26.20;;;;;;;;;;5025811;28;20455;-73
2022/11/30 11:42:30;;;;;;;41.78;26.13;;;;;;;;;;5032898;28;20831;-74
2022/11/30 11:44:58;;;;;;;40.65;25.80;;;;;;;;;;5053999;28;20504;-73
2022/11/30 11:47:38;;;;;;;41.38;25.90;;;;;;;;;;5051331;28;20558;-73
2022/11/30 11:50:20;;;;;;;42.00;26.23;;;;;;;;;;5036891;28;20428;-79
2022/11/30 11:52:46;;;;;;;43.20;26.30;;;;;;;;;;5072465;28;20423;-79
2022/11/30 11:55:13;;;;;;;43.05;26.83;;;;;;;;;;5032195;28;20420;-81
2022/11/30 11:57:42;;;;;;;41.40;26.42;;;;;;;;;;5039479;28;20427;-80
2022/11/30 12:00:16;;;;;;;41.30;26.85;;;;;;;;;;5053694;28;20838;-80
2022/11/30 12:03:01;;;;;;;41.85;26.83;;;;;;;;;;5052393;28;20435;-80
2022/11/30 12:05:36;;;;;;;42.40;26.98;;;;;;;;;;5069270;28;20408;-80
2022/11/30 12:08:27;;;;;;;42.15;27.55;;;7.50;99.90;;;;;;5060041;28;20483;-80
2022/11/30 12:10:59;;;;;;;44.90;28.05;;;;;;;;;;5034878;28;20425;-81
2022/11/30 12:13:28;;;;;;;42.97;27.27;;;;;;;;;;5031389;28;20588;-81
2022/11/30 12:16:18;;;;;;;45.08;28.50;;;;;;;;;;5024837;28;20456;-82
2022/11/30 12:18:44;;;;;;;46.80;28.67;;;;;;;;;;5028744;28;20919;-81
2022/11/30 12:21:13;;;;;;;43.58;27.77;;;;;;;;;;5076326;28;21052;-82
2022/11/30 12:23:48;;;;;;;46.43;29.17;;;;;;;;;;5043162;28;20500;-82
2022/11/30 12:26:29;;;;;;;44.55;28.88;;;;;;;;;;5064277;28;20423;-82
2022/11/30 12:28:58;;;;;;;46.03;28.50;;;;;;;;;;5029817;28;20908;-81
2022/11/30 12:31:27;;;;;;;46.70;29.37;;;;;;;;;;5046930;28;20962;-81
2022/11/30 12:34:12;;;;;;;48.70;29.23;;;;;;;;;;5045297;28;20415;-82
2022/11/30 12:36:53;;;;;;;48.47;28.95;;;;;;;;;;5038043;28;20417;-81
2022/11/30 12:39:28;;;;;;;49.38;30.90;;;;;;;;;;5053652;28;20498;-81
2022/11/30 12:41:59;;;;;;;46.35;28.83;;;;;;;;;;5031026;28;20527;-79
2022/11/30 12:44:55;;;;;;;48.67;29.73;;;7.50;99.90;;;;;;5053699;28;20469;-80
2022/11/30 12:47:39;;;;;;;49.53;29.77;;;;;;;;;;5046696;28;20499;-79
2022/11/30 12:50:26;;;;;;;47.20;29.33;;;7.40;99.90;;;;;;5034066;28;20427;-81
2022/11/30 12:52:52;;;;;;;46.20;29.48;;;;;;;;;;5042174;28;20423;-79
2022/11/30 12:55:36;;;;;;;44.40;27.97;;;;;;;;;;5050384;28;20512;-80
2022/11/30 12:58:11;;;;;;;43.58;28.27;;;;;;;;;;5039790;28;20423;-79
2022/11/30 13:00:58;;;;;;;44.85;28.77;;;;;;;;;;5030566;28;20562;-80
2022/11/30 13:03:27;;;;;;;45.85;29.58;;;;;;;;;;5051237;28;20939;-80
2022/11/30 13:05:59;;;;;;;44.10;28.17;;;;;;;;;;5051527;28;20506;-79
2022/11/30 13:08:27;;;;;;;43.92;27.98;;;;;;;;;;5051659;28;20460;-79
2022/11/30 13:10:59;;;;;;;45.13;29.13;;;;;;;;;;5051613;28;20416;-79
2022/11/30 13:13:29;;;;;;;42.63;27.73;;;;;;;;;;5050959;28;22374;-80
2022/11/30 13:15:56;;;;;;;44.88;28.67;;;;;;;;;;5051258;28;20425;-80
2022/11/30 13:18:22;;;;;;;43.20;26.77;;;;;;;;;;5050673;28;20455;-80
2022/11/30 13:21:04;;;;;;;43.60;27.83;;;;;;;;;;5047986;28;20422;-80
2022/11/30 13:23:37;;;;;;;43.72;28.17;;;;;;;;;;5052434;28;20961;-80
2022/11/30 13:26:26;;;;;;;45.75;28.75;;;;;;;;;;5033596;28;20442;-79
2022/11/30 13:28:52;;;;;;;47.53;28.58;;;;;;;;;;5039475;28;20429;-80
2022/11/30 13:31:21;;;;;;;47.20;29.10;;;;;;;;;;5051592;28;20435;-79
2022/11/30 13:33:53;;;;;;;45.08;28.63;;;;;;;;;;5045632;28;20427;-81
2022/11/30 13:36:30;;;;;;;44.00;28.60;;;;;;;;;;5033546;28;20527;-82
2022/11/30 13:39:19;;;;;;;43.63;27.48;;;;;;;;;;5050342;28;20416;-82
2022/11/30 13:41:46;;;;;;;44.88;28.25;;;;;;;;;;5055947;28;20426;-81
2022/11/30 13:44:39;;;;;;;46.08;29.73;;;;;;;;;;5042619;28;20461;-81
2022/11/30 13:47:13;;;;;;;47.55;28.42;;;;;;;;;;5041953;28;20435;-74
2022/11/30 13:49:39;;;;;;;45.70;28.95;;;;;;;;;;5049733;28;20520;-74
2022/11/30 13:52:06;;;;;;;48.28;29.77;;;;;;;;;;5034552;28;20423;-73
2022/11/30 13:54:38;;;;;;;48.03;29.20;;;;;;;;;;5033236;28;20426;-72
2022/11/30 13:57:18;;;;;;;48.55;30.98;;;;;;;;;;5031887;28;20423;-74
2022/11/30 13:59:45;;;;;;;46.97;29.48;;;;;;;;;;5030747;28;20485;-74
2022/11/30 14:02:30;;;;;;;51.40;30.85;;;7.30;99.90;;;;;;5027133;28;20434;-73
2022/11/30 14:05:16;;;;;;;49.20;30.50;;;;;;;;;;5054523;28;20966;-73
2022/11/30 14:07:51;;;;;;;50.60;30.15;;;;;;;;;;5040764;28;20477;-74
2022/11/30 14:10:28;;;;;;;48.50;30.02;;;;;;;;;;5051469;28;20419;-74
2022/11/30 14:13:04;;;;;;;51.35;30.83;;;;;;;;;;5036481;28;20420;-74
2022/11/30 14:15:50;;;;;;;51.47;31.33;;;;;;;;;;5050287;28;20942;-73
2022/11/30 14:18:20;;;;;;;53.42;31.70;;;;;;;;;;5056119;28;20423;-73
2022/11/30 14:20:52;;;;;;;55.88;33.30;;;;;;;;;;5042094;28;20415;-72
2022/11/30 14:23:21;;;;;;;51.63;31.35;;;;;;;;;;5034782;28;20415;-73
2022/11/30 14:25:48;;;;;;;53.75;31.00;;;;;;;;;;5042373;28;20445;-81
2022/11/30 14:28:16;;;;;;;50.60;31.48;;;;;;;;;;5032486;28;20433;-80